sensor_id;sensor_type;location;lat;lon;timestamp;temperature;humidity
69009;SHT31;56065;52.472;13.380;2023-03-18T00:02:09;10.38;57.37
69009;SHT31;56065;52.472;13.380;2023-03-18T00:04:34;10.29;57.42
69009;SHT31;56065;52.472;13.380;2023-03-18T00:07:00;10.25;57.29
69009;SHT31;56065;52.472;13.380;2023-03-18T00:09:26;10.43;56.88
69009;SHT31;56065;52.472;13.380;2023-03-18T00:11:52;10.40;57.00
69009;SHT31;56065;52.472;13.380;2023-03-18T00:14:18;10.21;57.28
69009;SHT31;56065;52.472;13.380;2023-03-18T00:16:44;10.36;57.30
69009;SHT31;56065;52.472;13.380;2023-03-18T00:19:10;10.41;56.83
69009;SHT31;56065;52.472;13.380;2023-03-18T00:21:35;10.29;57.15
69009;SHT31;56065;52.472;13.380;2023-03-18T00:24:01;10.36;57.76
69009;SHT31;56065;52.472;13.380;2023-03-18T00:26:27;10.21;57.24
69009;SHT31;56065;52.472;13.380;2023-03-18T00:28:57;10.31;57.33
69009;SHT31;56065;52.472;13.380;2023-03-18T00:31:23;10.34;57.19
69009;SHT31;56065;52.472;13.380;2023-03-18T00:33:49;10.30;57.22
69009;SHT31;56065;52.472;13.380;2023-03-18T00:36:15;10.20;57.17
69009;SHT31;56065;52.472;13.380;2023-03-18T00:38:43;10.27;57.13
69009;SHT31;56065;52.472;13.380;2023-03-18T00:41:11;10.20;57.40
69009;SHT31;56065;52.472;13.380;2023-03-18T00:43:48;10.18;57.35
69009;SHT31;56065;52.472;13.380;2023-03-18T00:46:27;10.14;57.14
69009;SHT31;56065;52.472;13.380;2023-03-18T00:48:55;10.14;57.19
69009;SHT31;56065;52.472;13.380;2023-03-18T00:51:23;9.94;57.58
69009;SHT31;56065;52.472;13.380;2023-03-18T00:53:53;10.02;57.44
69009;SHT31;56065;52.472;13.380;2023-03-18T00:56:21;9.82;57.79
69009;SHT31;56065;52.472;13.380;2023-03-18T00:58:48;9.94;57.52
69009;SHT31;56065;52.472;13.380;2023-03-18T01:01:14;10.02;57.47
69009;SHT31;56065;52.472;13.380;2023-03-18T01:03:41;9.92;57.40
69009;SHT31;56065;52.472;13.380;2023-03-18T01:06:08;9.96;57.39
69009;SHT31;56065;52.472;13.380;2023-03-18T01:08:36;9.96;57.40
69009;SHT31;56065;52.472;13.380;2023-03-18T01:11:02;9.85;57.66
69009;SHT31;56065;52.472;13.380;2023-03-18T01:13:28;9.89;57.59
69009;SHT31;56065;52.472;13.380;2023-03-18T01:15:53;9.85;57.50
69009;SHT31;56065;52.472;13.380;2023-03-18T01:18:19;9.82;57.67
69009;SHT31;56065;52.472;13.380;2023-03-18T01:20:45;9.81;57.81
69009;SHT31;56065;52.472;13.380;2023-03-18T01:23:11;9.79;57.79
69009;SHT31;56065;52.472;13.380;2023-03-18T01:25:37;9.78;57.86
69009;SHT31;56065;52.472;13.380;2023-03-18T01:28:03;9.72;57.85
69009;SHT31;56065;52.472;13.380;2023-03-18T01:30:30;9.75;57.77
69009;SHT31;56065;52.472;13.380;2023-03-18T01:32:56;9.76;57.66
69009;SHT31;56065;52.472;13.380;2023-03-18T01:35:22;9.72;57.81
69009;SHT31;56065;52.472;13.380;2023-03-18T01:37:47;9.72;57.94
69009;SHT31;56065;52.472;13.380;2023-03-18T01:40:14;9.78;57.66
69009;SHT31;56065;52.472;13.380;2023-03-18T01:42:41;9.66;58.02
69009;SHT31;56065;52.472;13.380;2023-03-18T01:45:14;9.75;57.86
69009;SHT31;56065;52.472;13.380;2023-03-18T01:47:44;9.81;57.49
69009;SHT31;56065;52.472;13.380;2023-03-18T01:50:12;9.82;57.60
69009;SHT31;56065;52.472;13.380;2023-03-18T01:52:39;9.83;57.61
69009;SHT31;56065;52.472;13.380;2023-03-18T01:55:10;9.78;57.76
69009;SHT31;56065;52.472;13.380;2023-03-18T01:57:37;9.76;57.57
69009;SHT31;56065;52.472;13.380;2023-03-18T02:00:04;9.81;57.72
69009;SHT31;56065;52.472;13.380;2023-03-18T02:02:31;9.85;57.64
69009;SHT31;56065;52.472;13.380;2023-03-18T02:05:01;9.69;57.88
69009;SHT31;56065;52.472;13.380;2023-03-18T02:07:30;9.68;58.00
69009;SHT31;56065;52.472;13.380;2023-03-18T02:10:02;9.78;57.98
69009;SHT31;56065;52.472;13.380;2023-03-18T02:12:30;9.63;57.92
69009;SHT31;56065;52.472;13.380;2023-03-18T02:14:58;9.72;57.80
69009;SHT31;56065;52.472;13.380;2023-03-18T02:17:29;9.78;57.35
69009;SHT31;56065;52.472;13.380;2023-03-18T02:22:37;9.82;57.41
69009;SHT31;56065;52.472;13.380;2023-03-18T02:28:10;9.81;57.40
69009;SHT31;56065;52.472;13.380;2023-03-18T02:30:39;9.78;57.61
69009;SHT31;56065;52.472;13.380;2023-03-18T02:33:06;9.82;57.43
69009;SHT31;56065;52.472;13.380;2023-03-18T02:35:33;9.69;57.93
69009;SHT31;56065;52.472;13.380;2023-03-18T02:37:59;9.75;57.70
69009;SHT31;56065;52.472;13.380;2023-03-18T02:40:29;9.63;57.83
69009;SHT31;56065;52.472;13.380;2023-03-18T02:42:54;9.63;57.85
69009;SHT31;56065;52.472;13.380;2023-03-18T02:48:12;9.62;57.75
69009;SHT31;56065;52.472;13.380;2023-03-18T02:50:39;9.73;57.57
69009;SHT31;56065;52.472;13.380;2023-03-18T02:53:05;9.51;58.26
69009;SHT31;56065;52.472;13.380;2023-03-18T02:55:30;9.66;57.84
69009;SHT31;56065;52.472;13.380;2023-03-18T02:57:56;9.78;57.88
69009;SHT31;56065;52.472;13.380;2023-03-18T03:00:22;9.79;57.74
69009;SHT31;56065;52.472;13.380;2023-03-18T03:02:47;9.78;57.88
69009;SHT31;56065;52.472;13.380;2023-03-18T03:05:13;9.81;57.98
69009;SHT31;56065;52.472;13.380;2023-03-18T03:07:39;9.78;57.77
69009;SHT31;56065;52.472;13.380;2023-03-18T03:10:05;9.75;57.68
69009;SHT31;56065;52.472;13.380;2023-03-18T03:12:32;9.75;57.85
69009;SHT31;56065;52.472;13.380;2023-03-18T03:14:57;9.75;57.92
69009;SHT31;56065;52.472;13.380;2023-03-18T03:17:23;9.66;58.10
69009;SHT31;56065;52.472;13.380;2023-03-18T03:19:48;9.66;58.11
69009;SHT31;56065;52.472;13.380;2023-03-18T03:22:14;9.69;58.14
69009;SHT31;56065;52.472;13.380;2023-03-18T03:24:42;9.68;58.04
69009;SHT31;56065;52.472;13.380;2023-03-18T03:27:08;9.62;58.29
69009;SHT31;56065;52.472;13.380;2023-03-18T03:29:33;9.75;57.98
69009;SHT31;56065;52.472;13.380;2023-03-18T03:31:58;9.73;57.92
69009;SHT31;56065;52.472;13.380;2023-03-18T03:34:24;9.75;57.94
69009;SHT31;56065;52.472;13.380;2023-03-18T03:36:49;9.73;58.12
69009;SHT31;56065;52.472;13.380;2023-03-18T03:39:14;9.71;58.32
69009;SHT31;56065;52.472;13.380;2023-03-18T03:41:40;9.42;58.98
69009;SHT31;56065;52.472;13.380;2023-03-18T03:44:05;9.56;58.45
69009;SHT31;56065;52.472;13.380;2023-03-18T03:46:31;9.61;58.40
69009;SHT31;56065;52.472;13.380;2023-03-18T03:48:56;9.59;58.29
69009;SHT31;56065;52.472;13.380;2023-03-18T03:51:22;9.55;58.60
69009;SHT31;56065;52.472;13.380;2023-03-18T03:53:48;9.51;58.62
69009;SHT31;56065;52.472;13.380;2023-03-18T03:56:13;9.51;58.61
69009;SHT31;56065;52.472;13.380;2023-03-18T03:58:39;9.44;58.67
69009;SHT31;56065;52.472;13.380;2023-03-18T04:01:05;9.46;58.77
69009;SHT31;56065;52.472;13.380;2023-03-18T04:03:30;9.52;58.65
69009;SHT31;56065;52.472;13.380;2023-03-18T04:05:56;9.51;58.73
69009;SHT31;56065;52.472;13.380;2023-03-18T04:08:21;9.55;58.67
69009;SHT31;56065;52.472;13.380;2023-03-18T04:10:46;9.51;58.65
69009;SHT31;56065;52.472;13.380;2023-03-18T04:13:12;9.46;58.78
69009;SHT31;56065;52.472;13.380;2023-03-18T04:15:37;9.42;59.10
69009;SHT31;56065;52.472;13.380;2023-03-18T04:18:03;9.44;59.38
69009;SHT31;56065;52.472;13.380;2023-03-18T04:20:35;9.36;59.04
69009;SHT31;56065;52.472;13.380;2023-03-18T04:23:02;9.36;59.06
69009;SHT31;56065;52.472;13.380;2023-03-18T04:25:28;9.38;59.08
69009;SHT31;56065;52.472;13.380;2023-03-18T04:27:54;9.32;58.99
69009;SHT31;56065;52.472;13.380;2023-03-18T04:30:21;9.32;59.16
69009;SHT31;56065;52.472;13.380;2023-03-18T04:32:48;9.38;58.98
69009;SHT31;56065;52.472;13.380;2023-03-18T04:35:15;9.41;58.91
69009;SHT31;56065;52.472;13.380;2023-03-18T04:37:41;9.35;59.33
69009;SHT31;56065;52.472;13.380;2023-03-18T04:40:07;9.41;58.92
69009;SHT31;56065;52.472;13.380;2023-03-18T04:42:34;9.34;58.94
69009;SHT31;56065;52.472;13.380;2023-03-18T04:44:59;9.35;58.94
69009;SHT31;56065;52.472;13.380;2023-03-18T04:47:26;9.34;58.68
69009;SHT31;56065;52.472;13.380;2023-03-18T04:49:52;9.25;58.86
69009;SHT31;56065;52.472;13.380;2023-03-18T04:52:17;9.28;58.80
69009;SHT31;56065;52.472;13.380;2023-03-18T04:54:42;9.30;58.86
69009;SHT31;56065;52.472;13.380;2023-03-18T04:57:08;9.32;58.83
69009;SHT31;56065;52.472;13.380;2023-03-18T04:59:33;9.20;58.77
69009;SHT31;56065;52.472;13.380;2023-03-18T05:01:59;9.28;58.84
69009;SHT31;56065;52.472;13.380;2023-03-18T05:04:24;9.11;59.10
69009;SHT31;56065;52.472;13.380;2023-03-18T05:06:50;9.15;58.85
69009;SHT31;56065;52.472;13.380;2023-03-18T05:09:16;9.28;58.62
69009;SHT31;56065;52.472;13.380;2023-03-18T05:11:43;9.32;58.61
69009;SHT31;56065;52.472;13.380;2023-03-18T05:14:08;9.32;58.49
69009;SHT31;56065;52.472;13.380;2023-03-18T05:16:33;9.30;58.48
69009;SHT31;56065;52.472;13.380;2023-03-18T05:19:00;9.20;58.61
69009;SHT31;56065;52.472;13.380;2023-03-18T05:21:26;9.20;58.55
69009;SHT31;56065;52.472;13.380;2023-03-18T05:23:51;9.25;58.75
69009;SHT31;56065;52.472;13.380;2023-03-18T05:26:16;9.20;58.93
69009;SHT31;56065;52.472;13.380;2023-03-18T05:28:42;9.11;58.96
69009;SHT31;56065;52.472;13.380;2023-03-18T05:31:07;9.10;59.00
69009;SHT31;56065;52.472;13.380;2023-03-18T05:33:32;9.15;58.96
69009;SHT31;56065;52.472;13.380;2023-03-18T05:35:58;9.11;59.06
69009;SHT31;56065;52.472;13.380;2023-03-18T05:38:23;9.11;59.20
69009;SHT31;56065;52.472;13.380;2023-03-18T05:40:49;9.00;59.36
69009;SHT31;56065;52.472;13.380;2023-03-18T05:43:15;9.11;59.26
69009;SHT31;56065;52.472;13.380;2023-03-18T05:45:40;9.08;59.18
69009;SHT31;56065;52.472;13.380;2023-03-18T05:48:06;9.22;59.03
69009;SHT31;56065;52.472;13.380;2023-03-18T05:50:34;9.21;59.10
69009;SHT31;56065;52.472;13.380;2023-03-18T05:53:01;9.25;58.97
69009;SHT31;56065;52.472;13.380;2023-03-18T05:55:27;9.31;59.21
69009;SHT31;56065;52.472;13.380;2023-03-18T05:57:54;9.15;59.27
69009;SHT31;56065;52.472;13.380;2023-03-18T06:00:20;9.14;59.30
69009;SHT31;56065;52.472;13.380;2023-03-18T06:02:45;9.21;59.17
69009;SHT31;56065;52.472;13.380;2023-03-18T06:05:11;9.25;59.24
69009;SHT31;56065;52.472;13.380;2023-03-18T06:07:37;9.34;59.05
69009;SHT31;56065;52.472;13.380;2023-03-18T06:10:02;9.35;59.05
69009;SHT31;56065;52.472;13.380;2023-03-18T06:12:28;9.51;58.66
69009;SHT31;56065;52.472;13.380;2023-03-18T06:14:54;9.56;58.59
69009;SHT31;56065;52.472;13.380;2023-03-18T06:17:20;9.53;58.56
69009;SHT31;56065;52.472;13.380;2023-03-18T06:19:46;9.62;58.52
69009;SHT31;56065;52.472;13.380;2023-03-18T06:22:13;9.63;58.53
69009;SHT31;56065;52.472;13.380;2023-03-18T06:24:39;9.68;58.34
69009;SHT31;56065;52.472;13.380;2023-03-18T06:27:05;9.72;58.39
69009;SHT31;56065;52.472;13.380;2023-03-18T06:29:31;9.81;58.16
69009;SHT31;56065;52.472;13.380;2023-03-18T06:31:56;9.81;58.15
69009;SHT31;56065;52.472;13.380;2023-03-18T06:34:22;9.62;58.50
69009;SHT31;56065;52.472;13.380;2023-03-18T06:36:47;9.75;58.40
69009;SHT31;56065;52.472;13.380;2023-03-18T06:39:13;9.82;58.29
69009;SHT31;56065;52.472;13.380;2023-03-18T06:41:38;9.68;58.75
69009;SHT31;56065;52.472;13.380;2023-03-18T06:44:04;9.75;58.74
69009;SHT31;56065;52.472;13.380;2023-03-18T06:46:30;9.82;58.55
69009;SHT31;56065;52.472;13.380;2023-03-18T06:48:56;9.71;58.80
69009;SHT31;56065;52.472;13.380;2023-03-18T06:51:21;9.62;58.79
69009;SHT31;56065;52.472;13.380;2023-03-18T06:53:47;9.58;59.05
69009;SHT31;56065;52.472;13.380;2023-03-18T06:56:12;9.82;58.77
69009;SHT31;56065;52.472;13.380;2023-03-18T06:58:41;10.02;58.46
69009;SHT31;56065;52.472;13.380;2023-03-18T07:01:06;9.89;58.61
69009;SHT31;56065;52.472;13.380;2023-03-18T07:03:32;9.92;58.50
69009;SHT31;56065;52.472;13.380;2023-03-18T07:05:58;10.61;57.71
69009;SHT31;56065;52.472;13.380;2023-03-18T07:08:24;10.94;57.05
69009;SHT31;56065;52.472;13.380;2023-03-18T07:10:52;11.49;55.66
69009;SHT31;56065;52.472;13.380;2023-03-18T07:13:18;11.78;55.11
69009;SHT31;56065;52.472;13.380;2023-03-18T07:15:44;11.88;54.39
69009;SHT31;56065;52.472;13.380;2023-03-18T07:18:10;12.24;54.08
69009;SHT31;56065;52.472;13.380;2023-03-18T07:20:35;12.45;53.57
69009;SHT31;56065;52.472;13.380;2023-03-18T07:23:02;12.92;52.93
69009;SHT31;56065;52.472;13.380;2023-03-18T07:25:28;12.86;52.78
69009;SHT31;56065;52.472;13.380;2023-03-18T07:27:54;12.72;52.68
69009;SHT31;56065;52.472;13.380;2023-03-18T07:30:20;13.25;52.69
69009;SHT31;56065;52.472;13.380;2023-03-18T07:32:46;13.68;51.39
69009;SHT31;56065;52.472;13.380;2023-03-18T07:35:11;13.48;51.30
69009;SHT31;56065;52.472;13.380;2023-03-18T07:37:39;13.68;50.81
69009;SHT31;56065;52.472;13.380;2023-03-18T07:40:06;13.87;50.59
69009;SHT31;56065;52.472;13.380;2023-03-18T07:42:32;14.37;50.46
69009;SHT31;56065;52.472;13.380;2023-03-18T07:44:57;15.38;49.28
69009;SHT31;56065;52.472;13.380;2023-03-18T07:47:23;15.97;48.19
69009;SHT31;56065;52.472;13.380;2023-03-18T07:49:49;15.38;48.16
69009;SHT31;56065;52.472;13.380;2023-03-18T07:52:16;16.14;47.56
69009;SHT31;56065;52.472;13.380;2023-03-18T07:54:42;16.32;46.98
69009;SHT31;56065;52.472;13.380;2023-03-18T07:57:07;17.27;46.36
69009;SHT31;56065;52.472;13.380;2023-03-18T07:59:34;18.46;44.42
69009;SHT31;56065;52.472;13.380;2023-03-18T08:02:01;18.70;43.96
69009;SHT31;56065;52.472;13.380;2023-03-18T08:04:26;18.84;43.82
69009;SHT31;56065;52.472;13.380;2023-03-18T08:06:52;17.78;44.44
69009;SHT31;56065;52.472;13.380;2023-03-18T08:09:19;17.95;44.59
69009;SHT31;56065;52.472;13.380;2023-03-18T08:11:45;17.94;43.98
69009;SHT31;56065;52.472;13.380;2023-03-18T08:14:11;18.22;44.03
69009;SHT31;56065;52.472;13.380;2023-03-18T08:16:36;18.86;43.20
69009;SHT31;56065;52.472;13.380;2023-03-18T08:19:02;20.61;41.12
69009;SHT31;56065;52.472;13.380;2023-03-18T08:21:27;21.50;40.85
69009;SHT31;56065;52.472;13.380;2023-03-18T08:23:54;22.28;39.09
69009;SHT31;56065;52.472;13.380;2023-03-18T08:26:20;22.69;38.35
69009;SHT31;56065;52.472;13.380;2023-03-18T08:28:46;22.57;38.89
69009;SHT31;56065;52.472;13.380;2023-03-18T08:31:11;23.33;37.75
69009;SHT31;56065;52.472;13.380;2023-03-18T08:33:38;22.41;38.50
69009;SHT31;56065;52.472;13.380;2023-03-18T08:36:04;23.43;38.38
69009;SHT31;56065;52.472;13.380;2023-03-18T08:38:30;23.58;37.39
69009;SHT31;56065;52.472;13.380;2023-03-18T08:40:55;24.53;37.18
69009;SHT31;56065;52.472;13.380;2023-03-18T08:43:22;24.75;36.42
69009;SHT31;56065;52.472;13.380;2023-03-18T08:45:54;23.96;36.93
69009;SHT31;56065;52.472;13.380;2023-03-18T08:48:21;23.89;37.46
69009;SHT31;56065;52.472;13.380;2023-03-18T08:50:46;23.21;38.49
69009;SHT31;56065;52.472;13.380;2023-03-18T08:53:12;20.88;41.10
69009;SHT31;56065;52.472;13.380;2023-03-18T08:55:38;20.61;41.63
69009;SHT31;56065;52.472;13.380;2023-03-18T08:58:05;19.61;43.20
69009;SHT31;56065;52.472;13.380;2023-03-18T09:00:33;20.07;42.60
69009;SHT31;56065;52.472;13.380;2023-03-18T09:02:59;19.80;43.08
69009;SHT31;56065;52.472;13.380;2023-03-18T09:05:24;18.87;44.88
69009;SHT31;56065;52.472;13.380;2023-03-18T09:07:50;18.56;45.02
69009;SHT31;56065;52.472;13.380;2023-03-18T09:10:17;18.50;45.56
69009;SHT31;56065;52.472;13.380;2023-03-18T09:12:44;19.28;44.49
69009;SHT31;56065;52.472;13.380;2023-03-18T09:15:12;19.08;44.67
69009;SHT31;56065;52.472;13.380;2023-03-18T09:17:38;19.32;44.47
69009;SHT31;56065;52.472;13.380;2023-03-18T09:20:06;20.69;43.45
69009;SHT31;56065;52.472;13.380;2023-03-18T09:22:32;22.42;41.94
69009;SHT31;56065;52.472;13.380;2023-03-18T09:24:58;23.74;39.84
69009;SHT31;56065;52.472;13.380;2023-03-18T09:27:23;24.23;38.78
69009;SHT31;56065;52.472;13.380;2023-03-18T09:29:49;23.48;39.00
69009;SHT31;56065;52.472;13.380;2023-03-18T09:32:14;24.17;38.62
69009;SHT31;56065;52.472;13.380;2023-03-18T09:34:40;24.64;38.69
69009;SHT31;56065;52.472;13.380;2023-03-18T09:37:06;23.41;38.46
69009;SHT31;56065;52.472;13.380;2023-03-18T09:39:31;24.33;37.93
69009;SHT31;56065;52.472;13.380;2023-03-18T09:44:33;24.43;38.02
69009;SHT31;56065;52.472;13.380;2023-03-18T09:50:15;26.31;36.34
69009;SHT31;56065;52.472;13.380;2023-03-18T09:52:53;27.13;35.29
69009;SHT31;56065;52.472;13.380;2023-03-18T09:55:31;26.48;35.71
69009;SHT31;56065;52.472;13.380;2023-03-18T09:58:09;28.25;34.64
69009;SHT31;56065;52.472;13.380;2023-03-18T10:00:38;28.52;34.43
69009;SHT31;56065;52.472;13.380;2023-03-18T10:03:10;29.13;33.89
69009;SHT31;56065;52.472;13.380;2023-03-18T10:05:45;29.85;33.68
69009;SHT31;56065;52.472;13.380;2023-03-18T10:08:22;29.15;32.81
69009;SHT31;56065;52.472;13.380;2023-03-18T10:10:48;29.51;34.17
69009;SHT31;56065;52.472;13.380;2023-03-18T10:13:27;30.29;32.77
69009;SHT31;56065;52.472;13.380;2023-03-18T10:15:55;30.96;31.84
69009;SHT31;56065;52.472;13.380;2023-03-18T10:18:31;30.73;32.08
69009;SHT31;56065;52.472;13.380;2023-03-18T10:26:37;30.30;33.06
69009;SHT31;56065;52.472;13.380;2023-03-18T10:34:28;29.24;34.09
69009;SHT31;56065;52.472;13.380;2023-03-18T10:39:59;30.12;32.68
69009;SHT31;56065;52.472;13.380;2023-03-18T10:42:26;29.75;32.86
69009;SHT31;56065;52.472;13.380;2023-03-18T10:45:06;27.70;34.93
69009;SHT31;56065;52.472;13.380;2023-03-18T10:47:36;27.98;35.12
69009;SHT31;56065;52.472;13.380;2023-03-18T10:53:10;27.90;34.72
69009;SHT31;56065;52.472;13.380;2023-03-18T10:55:59;26.08;36.51
69009;SHT31;56065;52.472;13.380;2023-03-18T10:58:27;25.45;38.00
69009;SHT31;56065;52.472;13.380;2023-03-18T11:00:53;24.67;38.51
69009;SHT31;56065;52.472;13.380;2023-03-18T11:03:52;24.39;39.26
69009;SHT31;56065;52.472;13.380;2023-03-18T11:06:25;23.85;40.35
69009;SHT31;56065;52.472;13.380;2023-03-18T11:09:09;23.90;40.26
69009;SHT31;56065;52.472;13.380;2023-03-18T11:11:41;23.75;40.82
69009;SHT31;56065;52.472;13.380;2023-03-18T11:14:12;22.97;42.03
69009;SHT31;56065;52.472;13.380;2023-03-18T11:22:09;23.02;42.89
69009;SHT31;56065;52.472;13.380;2023-03-18T11:24:37;22.86;43.03
69009;SHT31;56065;52.472;13.380;2023-03-18T11:27:21;22.48;43.89
69009;SHT31;56065;52.472;13.380;2023-03-18T11:30:11;22.48;43.91
69009;SHT31;56065;52.472;13.380;2023-03-18T11:32:49;22.53;43.93
69009;SHT31;56065;52.472;13.380;2023-03-18T11:35:19;23.16;42.77
69009;SHT31;56065;52.472;13.380;2023-03-18T11:37:45;22.85;43.60
69009;SHT31;56065;52.472;13.380;2023-03-18T11:42:44;22.38;44.40
69009;SHT31;56065;52.472;13.380;2023-03-18T11:47:51;21.53;46.44
69009;SHT31;56065;52.472;13.380;2023-03-18T11:50:20;20.72;47.70
69009;SHT31;56065;52.472;13.380;2023-03-18T11:52:59;21.03;47.82
69009;SHT31;56065;52.472;13.380;2023-03-18T11:55:42;22.24;47.27
69009;SHT31;56065;52.472;13.380;2023-03-18T11:58:48;23.78;44.80
69009;SHT31;56065;52.472;13.380;2023-03-18T12:13:12;26.01;40.94
69009;SHT31;56065;52.472;13.380;2023-03-18T12:29:24;27.42;39.74
69009;SHT31;56065;52.472;13.380;2023-03-18T12:32:02;28.31;38.83
69009;SHT31;56065;52.472;13.380;2023-03-18T12:37:41;28.36;38.91
69009;SHT31;56065;52.472;13.380;2023-03-18T12:45:31;27.34;40.17
69009;SHT31;56065;52.472;13.380;2023-03-18T12:48:02;28.04;39.21
69009;SHT31;56065;52.472;13.380;2023-03-18T12:50:35;28.26;38.74
69009;SHT31;56065;52.472;13.380;2023-03-18T12:53:14;28.01;39.05
69009;SHT31;56065;52.472;13.380;2023-03-18T12:55:44;28.18;38.92
69009;SHT31;56065;52.472;13.380;2023-03-18T13:01:01;29.08;39.09
69009;SHT31;56065;52.472;13.380;2023-03-18T13:03:32;29.02;38.01
69009;SHT31;56065;52.472;13.380;2023-03-18T13:06:24;29.44;37.95
69009;SHT31;56065;52.472;13.380;2023-03-18T13:09:24;28.46;38.97
69009;SHT31;56065;52.472;13.380;2023-03-18T13:12:07;28.44;39.05
69009;SHT31;56065;52.472;13.380;2023-03-18T13:17:04;29.34;38.16
69009;SHT31;56065;52.472;13.380;2023-03-18T13:19:34;29.23;38.18
69009;SHT31;56065;52.472;13.380;2023-03-18T13:27:52;27.07;41.34
69009;SHT31;56065;52.472;13.380;2023-03-18T13:36:18;26.68;41.73
69009;SHT31;56065;52.472;13.380;2023-03-18T13:47:39;25.67;43.31
69009;SHT31;56065;52.472;13.380;2023-03-18T13:52:43;26.85;42.05
69009;SHT31;56065;52.472;13.380;2023-03-18T14:00:44;26.23;42.69
69009;SHT31;56065;52.472;13.380;2023-03-18T14:03:29;24.56;45.13
69009;SHT31;56065;52.472;13.380;2023-03-18T14:13:56;23.78;47.20
69009;SHT31;56065;52.472;13.380;2023-03-18T14:22:07;22.93;48.22
69009;SHT31;56065;52.472;13.380;2023-03-18T14:24:33;23.45;46.90
69009;SHT31;56065;52.472;13.380;2023-03-18T14:29:33;23.75;47.19
69009;SHT31;56065;52.472;13.380;2023-03-18T14:32:03;23.75;47.06
69009;SHT31;56065;52.472;13.380;2023-03-18T14:34:34;23.48;47.32
69009;SHT31;56065;52.472;13.380;2023-03-18T14:39:46;22.96;48.48
69009;SHT31;56065;52.472;13.380;2023-03-18T14:42:35;22.82;48.60
69009;SHT31;56065;52.472;13.380;2023-03-18T14:45:18;22.72;48.92
69009;SHT31;56065;52.472;13.380;2023-03-18T14:47:47;22.59;49.25
69009;SHT31;56065;52.472;13.380;2023-03-18T14:50:35;22.44;50.23
69009;SHT31;56065;52.472;13.380;2023-03-18T14:55:44;22.28;50.25
69009;SHT31;56065;52.472;13.380;2023-03-18T14:58:19;22.22;50.62
69009;SHT31;56065;52.472;13.380;2023-03-18T15:01:05;22.15;50.62
69009;SHT31;56065;52.472;13.380;2023-03-18T15:03:31;22.09;50.80
69009;SHT31;56065;52.472;13.380;2023-03-18T15:06:02;22.09;50.88
69009;SHT31;56065;52.472;13.380;2023-03-18T15:08:31;22.07;50.62
69009;SHT31;56065;52.472;13.380;2023-03-18T15:10:58;22.12;50.62
69009;SHT31;56065;52.472;13.380;2023-03-18T15:13:24;22.22;50.57
69009;SHT31;56065;52.472;13.380;2023-03-18T15:15:53;22.15;51.17
69009;SHT31;56065;52.472;13.380;2023-03-18T15:18:28;22.14;51.10
69009;SHT31;56065;52.472;13.380;2023-03-18T15:28:52;22.11;51.57
69009;SHT31;56065;52.472;13.380;2023-03-18T15:31:35;22.00;51.97
69009;SHT31;56065;52.472;13.380;2023-03-18T15:34:25;21.87;51.98
69009;SHT31;56065;52.472;13.380;2023-03-18T15:36:59;21.37;52.72
69009;SHT31;56065;52.472;13.380;2023-03-18T15:39:38;20.94;53.71
69009;SHT31;56065;52.472;13.380;2023-03-18T15:42:30;20.58;54.59
69009;SHT31;56065;52.472;13.380;2023-03-18T15:45:00;20.49;54.72
69009;SHT31;56065;52.472;13.380;2023-03-18T15:47:30;20.51;54.19
69009;SHT31;56065;52.472;13.380;2023-03-18T15:49:58;20.55;54.36
69009;SHT31;56065;52.472;13.380;2023-03-18T15:52:34;20.13;55.32
69009;SHT31;56065;52.472;13.380;2023-03-18T15:55:28;20.04;55.57
69009;SHT31;56065;52.472;13.380;2023-03-18T15:57:55;20.13;55.40
69009;SHT31;56065;52.472;13.380;2023-03-18T16:00:20;20.17;55.12
69009;SHT31;56065;52.472;13.380;2023-03-18T16:02:47;20.03;55.61
69009;SHT31;56065;52.472;13.380;2023-03-18T16:05:18;20.00;55.70
69009;SHT31;56065;52.472;13.380;2023-03-18T16:07:44;19.85;56.37
69009;SHT31;56065;52.472;13.380;2023-03-18T16:10:11;19.97;55.93
69009;SHT31;56065;52.472;13.380;2023-03-18T16:12:37;19.96;56.06
69009;SHT31;56065;52.472;13.380;2023-03-18T16:15:04;19.93;55.92
69009;SHT31;56065;52.472;13.380;2023-03-18T16:17:30;20.01;55.37
69009;SHT31;56065;52.472;13.380;2023-03-18T16:19:58;19.93;55.98
69009;SHT31;56065;52.472;13.380;2023-03-18T16:22:24;19.80;56.50
69009;SHT31;56065;52.472;13.380;2023-03-18T16:24:50;19.93;56.20
69009;SHT31;56065;52.472;13.380;2023-03-18T16:27:28;20.20;56.08
69009;SHT31;56065;52.472;13.380;2023-03-18T16:29:55;20.28;55.41
69009;SHT31;56065;52.472;13.380;2023-03-18T16:32:20;20.33;55.14
69009;SHT31;56065;52.472;13.380;2023-03-18T16:34:47;20.28;55.30
69009;SHT31;56065;52.472;13.380;2023-03-18T16:37:23;20.04;55.90
69009;SHT31;56065;52.472;13.380;2023-03-18T16:39:50;19.83;56.41
69009;SHT31;56065;52.472;13.380;2023-03-18T16:42:16;19.45;57.47
69009;SHT31;56065;52.472;13.380;2023-03-18T16:44:42;19.24;57.84
69009;SHT31;56065;52.472;13.380;2023-03-18T16:47:19;19.19;57.65
69009;SHT31;56065;52.472;13.380;2023-03-18T16:49:46;19.07;58.30
69009;SHT31;56065;52.472;13.380;2023-03-18T16:52:11;19.05;57.59
69009;SHT31;56065;52.472;13.380;2023-03-18T16:54:37;18.81;59.10
69009;SHT31;56065;52.472;13.380;2023-03-18T16:57:04;18.71;58.92
69009;SHT31;56065;52.472;13.380;2023-03-18T16:59:32;18.63;58.88
69009;SHT31;56065;52.472;13.380;2023-03-18T17:01:59;18.49;60.06
69009;SHT31;56065;52.472;13.380;2023-03-18T17:04:27;18.47;59.47
69009;SHT31;56065;52.472;13.380;2023-03-18T17:06:57;18.33;59.76
69009;SHT31;56065;52.472;13.380;2023-03-18T17:09:23;18.19;60.39
69009;SHT31;56065;52.472;13.380;2023-03-18T17:11:52;18.17;60.89
69009;SHT31;56065;52.472;13.380;2023-03-18T17:14:36;18.09;60.75
69009;SHT31;56065;52.472;13.380;2023-03-18T17:17:06;18.09;60.07
69009;SHT31;56065;52.472;13.380;2023-03-18T17:19:32;18.04;60.01
69009;SHT31;56065;52.472;13.380;2023-03-18T17:22:00;17.94;60.23
69009;SHT31;56065;52.472;13.380;2023-03-18T17:24:25;17.94;60.29
69009;SHT31;56065;52.472;13.380;2023-03-18T17:26:51;17.91;60.66
69009;SHT31;56065;52.472;13.380;2023-03-18T17:29:24;17.86;61.16
69009;SHT31;56065;52.472;13.380;2023-03-18T17:31:53;17.82;60.76
69009;SHT31;56065;52.472;13.380;2023-03-18T17:34:20;17.74;61.26
69009;SHT31;56065;52.472;13.380;2023-03-18T17:36:46;17.63;61.50
69009;SHT31;56065;52.472;13.380;2023-03-18T17:39:12;17.55;61.33
69009;SHT31;56065;52.472;13.380;2023-03-18T17:41:38;17.44;62.13
69009;SHT31;56065;52.472;13.380;2023-03-18T17:44:33;17.31;62.70
69009;SHT31;56065;52.472;13.380;2023-03-18T17:46:58;17.22;62.63
69009;SHT31;56065;52.472;13.380;2023-03-18T17:49:25;17.10;63.15
69009;SHT31;56065;52.472;13.380;2023-03-18T17:51:52;17.02;63.53